Latest Weather Observations for Flinders Reef

IDQ60801

Issued at 3:02 pm EST Friday 20 October 2017 (issued every 30 minutes, with the page automatically refreshed every 10 minutes)

About weather observations | Map of weather stations | Latest weather observations for QLD | Other Formats
Station Details ID: 200783 Name: FLINDERS REEF Lat: -17.72 Lon: 148.45 Height: 2.6 m
Data from the previous 72 hours. | See also: Recent months at Flinders Reef
Date/Time
EST
Temp
°C
App
Temp
°C
Dew
Point
°C
Rel
Hum
%
Delta-T
°C
Wind Press
QNH
hPa
Press
MSL
hPa
Rain since
9am
mm
Dir  Spd
km/h
Gust
km/h
Spd
kts
Gust
kts
20/03:00pm 25.6 - - - - ESE 35 41 19 22 1013.5 - -
20/02:30pm 25.6 - - - - SE 33 39 18 21 1013.8 - -
20/02:24pm 25.8 - - - - SE 32 - 17 - - 1013.9 -
20/02:00pm 25.7 - - - - SE 33 39 18 21 1014.3 - -
20/01:30pm 25.2 - - - - SE 35 43 19 23 1015.0 - -
20/01:24pm 25.3 - - - - ESE 37 - 20 - - 1014.9 -
20/01:00pm 25.6 - - - - ESE 32 35 17 19 1015.3 - -
20/12:30pm 25.4 - - - - ESE 32 37 17 20 1015.6 - -
20/12:24pm 25.4 - - - - ESE 32 - 17 - - 1015.6 -
20/12:00pm 25.4 - - - - ESE 33 37 18 20 1015.9 - -
20/11:30am 25.6 - - - - ESE 35 41 19 22 1016.2 - -
20/11:24am 25.3 - - - - ESE 35 - 19 - - 1016.1 -
20/11:00am 25.6 - - - - ESE 33 39 18 21 1016.4 - -
20/10:30am 25.5 - - - - ESE 33 37 18 20 1016.4 - -
20/10:24am 25.5 - - - - ESE 33 - 18 - - 1016.3 -
20/10:00am 25.6 - - - - ESE 37 43 20 23 1016.4 - -
20/09:30am 25.6 - - - - SE 37 43 20 23 1016.4 - -
20/09:24am 25.8 - - - - SE 37 - 20 - - 1016.3 -
20/09:00am 25.7 - - - - ESE 37 41 20 22 1016.4 - -
20/08:30am 25.7 - - - - ESE 35 41 19 22 1016.2 - -
20/08:24am 25.6 - - - - ESE 35 - 19 - - 1016.1 -
20/08:00am 25.3 - - - - ESE 39 44 21 24 1015.9 - -
20/07:30am 25.3 - - - - SE 37 43 20 23 1015.7 - -
20/07:24am 25.4 - - - - SE 39 - 21 - - 1015.6 -
20/07:00am 25.4 - - - - SE 39 44 21 24 1015.2 - -
20/06:30am 25.3 - - - - SE 43 46 23 25 1014.7 - -
20/06:24am 25.3 - - - - SE 41 - 22 - - 1014.6 -
20/06:00am 25.3 - - - - SE 41 48 22 26 1014.6 - -
20/05:30am 25.1 - - - - SE 43 50 23 27 1014.4 - -
20/05:24am 25.1 - - - - ESE 41 - 22 - - 1014.2 -
20/05:00am 24.9 - - - - ESE 41 48 22 26 1014.1 - -
20/04:30am 24.5 - - - - ESE 41 46 22 25 1013.9 - -
20/04:24am 24.7 - - - - ESE 41 - 22 - - 1013.9 -
20/04:00am 24.4 - - - - ESE 41 48 22 26 1014.0 - -
20/03:30am 24.9 - - - - ESE 44 52 24 28 1013.7 - -
20/03:24am 25.0 - - - - ESE 44 - 24 - - 1013.5 -
20/03:00am 25.1 - - - - ESE 41 46 22 25 1013.6 - -
20/02:30am 25.0 - - - - SE 39 44 21 24 1013.7 - -
20/02:24am 25.0 - - - - SE 39 - 21 - - 1013.6 -
20/02:00am 25.3 - - - - ESE 43 48 23 26 1014.0 - -
20/01:30am 25.3 - - - - ESE 43 48 23 26 1014.5 - -
20/01:24am 25.3 - - - - ESE 41 - 22 - - 1014.5 -
20/01:00am 25.3 - - - - ESE 41 48 22 26 1015.0 - -
20/12:30am 25.3 - - - - ESE 41 48 22 26 1015.0 - -
20/12:24am 25.2 - - - - ESE 37 - 20 - - 1015.0 -
20/12:00am 25.3 - - - - ESE 37 44 20 24 1015.4 - -
 
Date/Time
EST
Temp
°C
App
Temp
°C
Dew
Point
°C
Rel
Hum
%
Delta-T
°C
Wind Press
QNH
hPa
Press
MSL
hPa
Rain since
9am
mm
Dir  Spd
km/h
Gust
km/h
Spd
kts
Gust
kts
19/11:30pm 25.3 - - - - E 37 43 20 23 1015.6 - -
19/11:24pm 25.2 - - - - E 41 - 22 - - 1015.7 -
19/11:00pm 25.5 - - - - E 39 46 21 25 1015.8 - -
19/10:30pm 25.6 - - - - E 39 46 21 25 1015.9 - -
19/10:24pm 25.7 - - - - E 41 - 22 - - 1015.8 -
19/10:00pm 25.6 - - - - E 41 46 22 25 1015.8 - -
19/09:30pm 25.7 - - - - E 39 44 21 24 1015.6 - -
19/09:24pm 25.7 - - - - E 37 - 20 - - 1015.4 -
19/09:00pm 25.8 - - - - E 33 43 18 23 1015.5 - -
19/08:30pm 25.7 - - - - ESE 37 43 20 23 1015.0 - -
19/08:24pm 25.8 - - - - ESE 37 - 20 - - 1014.9 -
19/08:00pm 25.7 - - - - ESE 37 43 20 23 1014.7 - -
19/07:30pm 25.8 - - - - E 39 46 21 25 1014.4 - -
19/07:24pm 25.8 - - - - E 37 - 20 - - 1014.3 -
19/07:00pm 25.7 - - - - ESE 37 41 20 22 1014.5 - -
19/06:30pm 25.8 - - - - E 33 37 18 20 1014.5 - -
19/06:24pm 25.7 - - - - E 32 - 17 - - 1014.3 -
19/06:00pm 25.8 - - - - ESE 33 41 18 22 1014.1 - -
19/05:30pm 25.7 - - - - ESE 32 37 17 20 1013.7 - -
19/05:24pm 25.7 - - - - ESE 33 - 18 - - 1013.5 -
19/05:00pm 25.7 - - - - ESE 33 39 18 21 1013.3 - -
19/04:30pm 25.7 - - - - ESE 33 39 18 21 1012.7 - -
19/04:24pm 25.7 - - - - ESE 33 - 18 - - 1012.7 -
19/04:00pm 25.7 - - - - ESE 33 39 18 21 1012.7 - -
19/03:30pm 25.8 - - - - ESE 33 39 18 21 1012.5 - -
19/03:24pm 25.7 - - - - ESE 32 - 17 - - 1012.5 -
19/03:00pm 25.8 - - - - ESE 30 39 16 21 1012.6 - -
19/02:30pm 25.9 - - - - E 28 35 15 19 1013.3 - -
19/02:24pm 25.9 - - - - E 30 - 16 - - 1013.3 -
19/02:00pm 26.2 - - - - E 26 30 14 16 1013.7 - -
19/01:30pm 26.3 - - - - E 28 32 15 17 1014.0 - -
19/01:24pm 26.4 - - - - E 26 - 14 - - 1013.9 -
19/01:00pm 26.6 - - - - E 28 33 15 18 1014.4 - -
19/12:30pm 26.4 - - - - E 32 37 17 20 1014.5 - -
19/12:24pm 26.5 - - - - E 32 - 17 - - 1014.5 -
19/12:00pm 26.5 - - - - E 33 39 18 21 1014.7 - -
19/11:30am 26.2 - - - - E 43 52 23 28 1014.0 - -
19/11:24am 26.2 - - - - E 44 - 24 - - 1013.8 -
19/11:00am 26.1 - - - - E 48 59 26 32 1013.5 - -
19/10:30am 26.2 - - - - E 56 67 30 36 1012.8 - -
19/10:24am 26.0 - - - - E 56 - 30 - - 1012.3 -
19/10:00am 25.9 - - - - E 56 69 30 37 1012.7 - -
19/09:30am 25.6 - - - - E 57 72 31 39 1012.9 - -
19/09:24am 25.5 - - - - E 56 - 30 - - 1012.7 -
19/09:00am 25.3 - - - - E 54 65 29 35 1013.1 - -
19/08:30am 25.3 - - - - E 54 67 29 36 1012.5 - -
19/08:24am 25.3 - - - - E 50 - 27 - - 1012.9 -
19/08:00am 25.3 - - - - E 54 63 29 34 1012.7 - -
19/07:30am 25.4 - - - - E 46 54 25 29 1013.8 - -
19/07:24am 25.4 - - - - E 44 - 24 - - 1013.7 -
19/07:00am 25.5 - - - - E 39 44 21 24 1013.9 - -
19/06:30am 25.5 - - - - E 41 46 22 25 1013.3 - -
19/06:24am 25.6 - - - - E 41 - 22 - - 1013.1 -
19/06:00am 25.7 - - - - E 39 50 21 27 1012.8 - -
19/05:30am 25.7 - - - - E 35 46 19 25 1012.2 - -
19/05:24am 25.6 - - - - E 37 - 20 - - 1012.2 -
19/05:00am 25.5 - - - - E 43 50 23 27 1011.4 - -
19/04:30am 25.3 - - - - E 41 46 22 25 1011.2 - -
19/04:24am 25.3 - - - - E 41 - 22 - - 1010.9 -
19/04:00am 25.1 - - - - E 41 48 22 26 1011.0 - -
19/03:30am 25.2 - - - - E 39 44 21 24 1011.3 - -
19/03:24am 25.2 - - - - E 39 - 21 - - 1011.2 -
19/03:00am 24.4 - - - - E 44 56 24 30 1011.5 - -
19/02:50am 24.4 - - - - E 46 54 25 29 1011.4 - -
19/02:30am 25.0 - - - - ESE 46 56 25 30 1011.2 - -
19/02:24am 25.0 - - - - ESE 41 - 22 - - 1011.4 -
19/02:00am 25.1 - - - - ESE 41 46 22 25 1012.0 - -
19/01:30am 25.0 - - - - ESE 41 48 22 26 1011.5 - -
19/01:24am 25.0 - - - - ESE 39 - 21 - - 1011.6 -
19/01:00am 25.0 - - - - E 30 35 16 19 1012.8 - -
19/12:30am 24.6 - - - - E 28 33 15 18 1013.9 - -
19/12:24am 24.6 - - - - E 28 - 15 - - 1013.8 -
19/12:00am 24.6 - - - - E 33 37 18 20 1013.8 - -
 
Date/Time
EST
Temp
°C
App
Temp
°C
Dew
Point
°C
Rel
Hum
%
Delta-T
°C
Wind Press
QNH
hPa
Press
MSL
hPa
Rain since
9am
mm
Dir  Spd
km/h
Gust
km/h
Spd
kts
Gust
kts
18/11:30pm 24.5 - - - - E 30 35 16 19 1013.8 - -
18/11:24pm 24.5 - - - - E 28 - 15 - - 1013.8 -
18/11:00pm 24.0 - - - - E 30 39 16 21 1014.1 - -
18/10:30pm 22.7 - - - - E 48 59 26 32 1014.6 - -
18/10:24pm 22.9 - - - - E 52 - 28 - - 1014.4 -
18/10:00pm 24.8 - - - - E 39 50 21 27 1014.8 - -
18/09:30pm 24.7 - - - - E 33 41 18 22 1014.2 - -
18/09:24pm 24.8 - - - - E 35 - 19 - - 1013.9 -
18/09:00pm 24.6 - - - - E 35 43 19 23 1013.7 - -
18/08:30pm 24.2 - - - - E 37 44 20 24 1013.4 - -
18/08:24pm 23.9 - - - - ESE 37 - 20 - - 1013.0 -
18/08:00pm 24.2 - - - - E 48 57 26 31 1012.9 - -
18/07:30pm 24.6 - - - - ESE 39 46 21 25 1012.6 - -
18/07:24pm 24.3 - - - - ESE 41 - 22 - - 1012.3 -
18/07:00pm 24.6 - - - - ESE 35 41 19 22 1012.6 - -
18/06:30pm 24.4 - - - - E 37 44 20 24 1012.7 - -
18/06:24pm 24.6 - - - - ESE 35 - 19 - - 1012.4 -
18/06:00pm 24.2 - - - - E 33 41 18 22 1012.2 - -
18/05:30pm 24.0 - - - - E 35 41 19 22 1011.6 - -
18/05:24pm 23.9 - - - - E 35 - 19 - - 1011.4 -
18/05:00pm 23.6 - - - - ESE 35 39 19 21 1011.1 - -
18/04:30pm 23.3 - - - - E 22 28 12 15 1011.7 - -
18/04:24pm 23.4 - - - - E 22 - 12 - - 1011.7 -
18/04:00pm 23.2 - - - - E 43 56 23 30 1011.7 - -
18/03:30pm 23.3 - - - - ESE 41 48 22 26 1011.2 - -
18/03:24pm 23.1 - - - - ESE 43 - 23 - - 1011.0 -
18/03:00pm 23.2 - - - - ESE 43 48 23 26 1011.5 - -
18/02:30pm 23.2 - - - - ESE 48 54 26 29 1011.6 - -
18/02:24pm 23.5 - - - - ESE 46 - 25 - - 1011.6 -
18/02:00pm 22.9 - - - - ESE 44 54 24 29 1012.1 - -
18/01:30pm 23.5 - - - - ESE 41 46 22 25 1012.6 - -
18/01:24pm 23.2 - - - - ESE 44 - 24 - - 1012.3 -
18/01:00pm 23.1 - - - - ESE 43 48 23 26 1012.7 - -
18/12:30pm 22.8 - - - - SE 35 43 19 23 1012.3 - -
18/12:24pm 22.5 - - - - SE 39 - 21 - - 1012.1 -
18/12:00pm 23.1 - - - - ESE 46 52 25 28 1012.7 - -
18/11:30am 23.2 - - - - ESE 43 50 23 27 1014.3 - -
18/11:24am 22.7 - - - - ESE 44 - 24 - - 1014.2 -
18/11:00am 22.8 - - - - ESE 54 63 29 34 1013.7 - -
18/10:30am 23.2 - - - - ESE 54 63 29 34 1013.8 - -
18/10:24am 23.1 - - - - SE 54 - 29 - - 1013.4 -
18/10:00am 23.1 - - - - SE 54 61 29 33 1013.2 - -
18/09:30am 23.1 - - - - SE 52 65 28 35 1013.7 - -
18/09:24am 23.3 - - - - SE 56 - 30 - - 1013.4 -
18/09:00am 23.4 - - - - SE 54 61 29 33 1013.7 - -
18/08:30am 23.6 - - - - SE 50 63 27 34 1013.5 - -
18/08:24am 23.8 - - - - SE 48 - 26 - - 1013.2 -
18/08:00am 23.1 - - - - SE 44 52 24 28 1012.8 - -
18/07:30am 23.2 - - - - SE 50 59 27 32 1011.8 - -
18/07:24am 23.2 - - - - SE 50 - 27 - - 1011.0 -
18/07:00am 23.3 - - - - SE 39 46 21 25 1011.6 - -
18/06:30am 23.0 - - - - SSE 43 56 23 30 1010.8 - -
18/06:24am 23.2 - - - - SSE 39 - 21 - - 1010.4 -
18/06:00am 23.1 - - - - SE 35 41 19 22 1011.0 - -
18/05:30am 23.3 - - - - SE 43 46 23 25 1010.3 - -
18/05:24am 23.5 - - - - SE 41 - 22 - - 1010.6 -
18/05:00am 23.7 - - - - SSE 43 50 23 27 1009.7 - -
18/04:30am 24.1 - - - - SSE 43 48 23 26 1008.6 - -
18/04:24am 23.9 - - - - SSE 43 - 23 - - 1008.5 -
18/04:00am 24.1 - - - - SSE 44 50 24 27 1007.9 - -
18/03:30am 24.2 - - - - SSE 41 48 22 26 1008.3 - -
18/03:24am 24.0 - - - - SSE 43 - 23 - - 1008.1 -
18/03:00am 24.0 - - - - SSE 43 48 23 26 1007.8 - -
18/02:30am 23.5 - - - - SSE 41 46 22 25 1008.3 - -
18/02:24am 23.5 - - - - SE 41 - 22 - - 1008.1 -
18/02:00am 23.5 - - - - SE 39 43 21 23 1008.7 - -
18/01:30am 22.8 - - - - SSE 35 39 19 21 1009.2 - -
18/01:24am 22.9 - - - - SSE 33 - 18 - - 1009.0 -
18/01:00am 22.9 - - - - SSE 35 39 19 21 1009.8 - -
18/12:30am 23.6 - - - - SE 41 46 22 25 1010.3 - -
18/12:24am 22.8 - - - - SE 43 - 23 - - 1010.1 -
18/12:00am 23.5 - - - - SE 39 44 21 24 1010.3 - -
 
Date/Time
EST
Temp
°C
App
Temp
°C
Dew
Point
°C
Rel
Hum
%
Delta-T
°C
Wind Press
QNH
hPa
Press
MSL
hPa
Rain since
9am
mm
Dir  Spd
km/h
Gust
km/h
Spd
kts
Gust
kts
17/11:30pm 23.4 - - - - SE 37 41 20 22 1010.8 - -
17/11:24pm 23.6 - - - - SE 37 - 20 - - 1010.6 -
17/11:00pm 23.5 - - - - SE 35 39 19 21 1010.9 - -
17/10:30pm 23.3 - - - - SE 39 44 21 24 1010.6 - -
17/10:24pm 23.3 - - - - SE 35 - 19 - - 1010.6 -
17/10:00pm 23.1 - - - - SSE 39 46 21 25 1010.5 - -
17/09:58pm 23.3 - - - - SSE 37 44 20 24 1010.4 - -
17/09:30pm 23.2 - - - - ESE 43 50 23 27 1010.8 - -
17/09:24pm 23.3 - - - - SE 41 - 22 - - 1010.8 -
17/09:00pm 22.9 - - - - ESE 43 48 23 26 1010.5 - -
17/08:30pm 23.5 - - - - SE 33 39 18 21 1010.6 - -
17/08:24pm 23.7 - - - - SE 33 - 18 - - 1010.5 -
17/08:00pm 23.5 - - - - SSE 32 35 17 19 1010.6 - -
17/07:30pm 23.0 - - - - SSE 39 44 21 24 1009.9 - -
17/07:24pm 23.0 - - - - SSE 37 - 20 - - 1009.8 -
17/07:00pm 23.3 - - - - SSE 30 35 16 19 1010.2 - -
17/06:30pm 23.0 - - - - SSE 26 32 14 17 1010.6 - -
17/06:24pm 23.0 - - - - SSE 28 - 15 - - 1010.9 -
17/06:00pm 23.0 - - - - SSE 35 43 19 23 1010.1 - -
17/05:30pm 23.4 - - - - S 22 43 12 23 1009.7 - -
17/05:24pm 23.2 - - - - S 22 - 12 - - 1009.6 -
17/05:00pm 22.7 - - - - SSE 30 33 16 18 1009.5 - -
17/04:30pm 22.4 - - - - SSE 33 43 18 23 1009.2 - -
17/04:24pm 23.1 - - - - S 30 - 16 - - 1009.1 -
17/04:00pm 23.1 - - - - S 28 32 15 17 1009.2 - -
17/03:30pm 23.3 - - - - SE 32 35 17 19 1009.0 - -
17/03:24pm 23.4 - - - - SE 35 - 19 - - 1009.1 -
17/03:17pm 23.6 - - - - SE 37 43 20 23 1008.9 - -

Other Formats:

Comma delimited format used in spreadsheet applications
http://www.bom.gov.au/fwo/IDQ60801/IDQ60801.94290.axf

JavaScript Object Notation format (JSON) in row-major order
http://www.bom.gov.au/fwo/IDQ60801/IDQ60801.94290.json